Time;durP1;ratioP1;P1;durP2;ratioP2;P2;SDS_P1;SDS_P2;PMS_P1;PMS_P2;Temp;Humidity;BMP_temperature;BMP_pressure;BME280_temperature;BME280_humidity;BME280_pressure;Samples;Min_cycle;Max_cycle;Signal;HPM_P1;HPM_P2
2022/09/01 00:00:27;;;;;;;13.18;11.90;;;;;;;20.64;nan;94848.44;4968989;28;20290;-62
2022/09/01 00:02:55;;;;;;;14.23;12.93;;;;;;;20.81;nan;94845.38;4966905;28;20289;-64
2022/09/01 00:05:22;;;;;;;14.63;13.23;;;;;;;20.90;nan;94852.44;4979003;28;20644;-63
2022/09/01 00:07:49;;;;;;;13.45;12.02;;;;;;;20.95;nan;94839.97;4969658;28;20648;-66
2022/09/01 00:10:16;;;;;;;14.27;12.82;;;;;;;20.95;nan;94839.97;4966037;28;20208;-65
2022/09/01 00:12:44;;;;;;;13.85;12.45;;;;;;;20.80;nan;94830.81;4966871;28;20662;-62
2022/09/01 00:15:12;;;;;;;13.60;12.27;;;;;;;20.87;nan;94839.75;4968031;28;20360;-65
2022/09/01 00:17:39;;;;;;;13.57;11.93;;;;;;;20.81;nan;94835.03;4968949;28;20228;-64
2022/09/01 00:20:08;;;;;;;13.85;11.70;;;;;;;20.94;nan;94828.00;4966977;28;20216;-61
2022/09/01 00:22:35;;;;;;;16.73;12.57;;;;;;;20.91;nan;94830.81;4969157;28;20218;-60
2022/09/01 00:25:03;;;;;;;17.67;12.27;;;;;;;20.89;nan;94835.28;4968584;28;20285;-62
2022/09/01 00:27:31;;;;;;;12.57;11.48;;;;;;;21.01;nan;94836.94;4968128;28;20253;-66
2022/09/01 00:29:58;;;;;;;13.23;12.00;;;;;;;21.15;nan;94829.84;4966320;28;20623;-61
2022/09/01 00:32:25;;;;;;;18.60;12.43;;;;;;;21.14;nan;94833.38;4969524;28;20262;-63
2022/09/01 00:34:51;;;;;;;11.88;10.88;;;;;;;21.18;nan;94833.00;4967418;28;20722;-64
2022/09/01 00:37:19;;;;;;;12.27;11.18;;;;;;;21.19;nan;94834.66;4968480;28;20553;-62
2022/09/01 00:39:46;;;;;;;12.15;11.07;;;;;;;21.23;nan;94837.84;4966381;28;20229;-62
2022/09/01 00:42:13;;;;;;;15.02;11.90;;;;;;;21.19;nan;94839.00;4967018;28;20236;-62
2022/09/01 00:44:40;;;;;;;13.43;12.05;;;;;;;21.04;nan;94839.25;4967319;28;20322;-63
2022/09/01 00:47:06;;;;;;;14.30;11.88;;;;;;;20.92;nan;94844.56;4968061;28;20240;-64
2022/09/01 00:49:39;;;;;;;13.18;11.88;;;;;;;20.69;nan;94842.00;4966244;28;20215;-63
2022/09/01 00:52:09;;;;;;;12.98;11.68;;;;;;;20.67;nan;94843.03;4967390;28;20223;-64
2022/09/01 00:54:41;;;;;;;12.98;11.95;;;;;;;20.72;nan;94851.28;4966283;28;20278;-60
2022/09/01 00:57:11;;;;;;;13.10;12.00;;;;;;;20.82;nan;94856.53;4967667;28;20686;-64
2022/09/01 00:59:43;;;;;;;12.52;11.13;;;;;;;20.80;nan;94859.22;4965816;28;20295;-63
2022/09/01 01:02:10;;;;;;;12.70;11.45;;;;;;;20.79;nan;94860.16;4966314;28;20742;-67
2022/09/01 01:04:37;;;;;;;12.55;11.02;;;;;;;20.86;nan;94865.69;4967526;28;20214;-63
2022/09/01 01:07:07;;;;;;;11.57;10.60;;;;;;;20.70;nan;94868.63;4967705;28;20800;-64
2022/09/01 01:09:39;;;;;;;12.32;10.82;;;;;;;20.84;nan;94862.41;4966272;28;20771;-63
2022/09/01 01:12:10;;;;;;;12.93;11.30;;;;;;;20.90;nan;94862.75;4968743;28;20262;-64
2022/09/01 01:14:38;;;;;;;16.05;11.52;;;;;;;20.81;nan;94855.72;4968093;28;20212;-64
2022/09/01 01:17:06;;;;;;;13.80;10.65;;;;;;;20.92;nan;94852.31;4967675;28;21919;-65
2022/09/01 01:25:21;;;;;;;12.70;11.57;;;;;;;20.34;nan;94851.56;4969523;28;20269;-62
2022/09/01 01:27:48;;;;;;;13.05;10.73;;;;;;;20.09;nan;94837.06;4968108;28;20403;-65
2022/09/01 01:30:17;;;;;;;19.73;12.00;;;;;;;19.96;nan;94844.91;4967352;28;20200;-66
2022/09/01 01:32:46;;;;;;;12.50;11.32;;;;;;;20.02;nan;94841.06;4968569;28;20236;-66
2022/09/01 01:35:15;;;;;;;13.68;12.38;;;;;;;19.70;nan;94846.81;4969467;28;20234;-64
2022/09/01 01:37:47;;;;;;;12.85;11.20;;;;;;;19.43;nan;94845.38;4968086;28;21788;-63
2022/09/01 01:40:16;;;;;;;18.90;13.23;;;;;;;18.93;nan;94850.59;4968066;28;20209;-63
2022/09/01 01:42:47;;;;;;;14.77;12.90;;;;;;;18.62;nan;94851.06;4967968;28;20218;-66
2022/09/01 01:45:16;;;;;;;15.25;12.77;;;;;;;18.62;nan;94851.88;4968095;28;22093;-63
2022/09/01 01:47:46;;;;;;;17.98;12.77;;;;;;;18.74;nan;94864.84;4967509;28;20756;-65
2022/09/01 01:50:14;;;;;;;14.82;13.32;;;;;;;18.71;nan;94865.06;4967074;28;20200;-66
2022/09/01 01:52:41;;;;;;;20.88;14.98;;;;;;;19.02;nan;94864.59;4971278;28;20691;-63
2022/09/01 01:55:11;;;;;;;15.35;13.95;;;;;;;19.01;nan;94868.94;4972647;28;20628;-65
2022/09/01 01:57:48;;;;;;;22.05;15.82;;;;;;;18.92;nan;94872.13;4971145;28;20259;-65
2022/09/01 02:00:18;;;;;;;17.23;15.23;;;;;;;18.56;nan;94872.06;4973354;28;20227;-65
2022/09/01 02:02:47;;;;;;;17.60;14.70;;;;;;;18.51;nan;94874.94;4972058;28;20343;-61
2022/09/01 02:05:19;;;;;;;19.58;14.23;;;;;;;18.70;nan;94877.09;4971970;28;20244;-60
2022/09/01 02:07:46;;;;;;;16.95;14.10;;;;;;;18.72;nan;94882.16;4969695;28;20231;-62
2022/09/01 02:10:13;;;;;;;17.25;15.55;;;;;;;18.42;nan;94882.44;4971435;28;20193;-66
2022/09/01 02:12:40;;;;;;;17.42;14.88;;;;;;;18.25;nan;94886.16;4970498;28;20588;-61
2022/09/01 02:15:08;;;;;;;18.25;14.93;;;;;;;18.53;nan;94887.69;4971565;28;20215;-61
2022/09/01 02:17:38;;;;;;;16.48;14.73;;;;;;;19.02;nan;94886.03;4973607;28;20204;-64
2022/09/01 02:20:06;;;;;;;17.83;15.60;;;;;;;19.24;nan;94880.19;4970683;28;20207;-65
2022/09/01 02:22:33;;;;;;;19.10;14.60;;;;;;;19.32;nan;94882.22;4969117;28;20801;-61
2022/09/01 02:24:59;;;;;;;16.40;14.95;;;;;;;19.39;nan;94883.44;4970756;28;20207;-62
2022/09/01 02:27:28;;;;;;;15.57;14.00;;;;;;;19.56;nan;94885.66;4970654;28;20228;-60
2022/09/01 02:29:57;;;;;;;15.63;14.07;;;;;;;19.61;nan;94883.56;4971432;28;20953;-63
2022/09/01 02:32:24;;;;;;;16.17;14.48;;;;;;;19.46;nan;94878.66;4972811;28;20212;-63
2022/09/01 02:35:00;;;;;;;16.77;15.10;;;;;;;19.29;nan;94882.44;4972151;28;20648;-63
2022/09/01 02:37:28;;;;;;;17.50;15.68;;;;;;;19.28;nan;94870.50;4972092;28;20208;-66
2022/09/01 02:39:56;;;;;;;15.90;14.20;;;;;;;19.45;nan;94864.97;4972563;28;20683;-64
2022/09/01 02:42:26;;;;;;;15.43;13.40;;;;;;;19.66;nan;94863.44;4972343;28;20212;-65
2022/09/01 02:44:54;;;;;;;16.23;14.35;;;;;;;19.77;nan;94867.00;4969912;28;20856;-63
2022/09/01 02:47:22;;;;;;;16.50;14.65;;;;;;;19.72;nan;94861.38;4970694;28;20236;-63
2022/09/01 02:49:49;;;;;;;16.30;13.85;;;;;;;19.43;nan;94864.25;4969005;28;20200;-60
2022/09/01 02:52:19;;;;;;;18.55;15.50;;;;;;;19.43;nan;94859.09;4970366;28;20741;-61
2022/09/01 02:54:49;;;;;;;16.52;14.38;;;;;;;19.54;nan;94856.63;4969579;28;20893;-63
2022/09/01 02:57:17;;;;;;;18.60;13.77;;;;;;;19.72;nan;94861.38;4971533;28;20683;-65
2022/09/01 02:59:46;;;;;;;15.30;13.80;;;;;;;19.76;nan;94855.88;4970702;28;20641;-61
2022/09/01 03:02:13;;;;;;;16.40;13.45;;;;;;;19.49;nan;94857.84;4969212;28;20209;-67
2022/09/01 03:04:40;;;;;;;17.27;14.35;;;;;;;19.38;nan;94854.25;4969697;28;20267;-62
2022/09/01 03:07:07;;;;;;;18.27;16.13;;;;;;;19.51;nan;94863.75;4971512;28;20235;-60
2022/09/01 03:09:35;;;;;;;21.50;15.55;;;;;;;19.01;nan;94863.78;4969599;28;20294;-63
2022/09/01 03:12:03;;;;;;;16.42;14.93;;;;;;;18.84;nan;94866.69;4970776;28;20216;-65
2022/09/01 03:14:31;;;;;;;20.15;15.15;;;;;;;19.09;nan;94862.41;4968393;28;20216;-60
2022/09/01 03:16:59;;;;;;;18.63;14.85;;;;;;;19.26;nan;94862.88;4970882;28;20212;-66
2022/09/01 03:19:26;;;;;;;17.90;16.02;;;;;;;19.37;nan;94856.94;4967836;28;20212;-60
2022/09/01 03:21:52;;;;;;;21.20;16.23;;;;;;;19.57;nan;94848.63;4969029;28;20877;-62
2022/09/01 03:24:20;;;;;;;25.38;16.17;;;;;;;19.59;nan;94859.66;4968807;28;20298;-61
2022/09/01 03:26:51;;;;;;;17.05;14.98;;;;;;;19.76;nan;94860.22;4971185;28;20203;-63
2022/09/01 03:29:18;;;;;;;27.55;15.23;;;;;;;19.66;nan;94866.03;4970741;28;20327;-60
2022/09/01 03:31:45;;;;;;;20.88;16.38;;;;;;;19.58;nan;94868.31;4968683;28;20208;-62
2022/09/01 03:34:12;;;;;;;21.85;16.23;;;;;;;19.49;nan;94868.97;4971027;28;20215;-65
2022/09/01 03:36:48;;;;;;;21.30;17.88;;;;;;;19.62;nan;94874.09;4968709;28;20215;-65
2022/09/01 03:39:16;;;;;;;18.23;16.13;;;;;;;19.72;nan;94863.94;4970671;28;20221;-65
2022/09/01 03:41:43;;;;;;;20.88;16.05;;;;;;;19.84;nan;94871.59;4971117;28;20212;-60
2022/09/01 03:44:15;;;;;;;21.05;16.48;;;;;;;19.74;nan;94868.06;4969924;28;20335;-62
2022/09/01 03:46:42;;;;;;;19.88;17.05;;;;;;;19.61;nan;94870.69;4969681;28;20204;-64
2022/09/01 03:49:14;;;;;;;17.52;15.77;;;;;;;19.68;nan;94874.47;4968781;28;21913;-63
2022/09/01 03:51:43;;;;;;;23.40;17.40;;;;;;;19.79;nan;94871.13;4970279;28;20200;-61
2022/09/01 03:54:10;;;;;;;21.60;18.67;;;;;;;19.76;nan;94865.38;5021663;22;20238;-66
2022/09/01 03:56:40;;;;;;;25.17;17.98;;;;;;;19.84;nan;94869.00;5029869;28;20210;-64
2022/09/01 03:59:07;;;;;;;21.48;17.10;;;;;;;19.94;nan;94874.34;5029355;28;20202;-64
2022/09/01 04:01:42;;;;;;;20.77;18.42;;;;;;;19.85;nan;94869.84;5029803;28;20206;-66
2022/09/01 04:04:12;;;;;;;22.95;18.15;;;;;;;19.96;nan;94875.06;5030157;28;20691;-61
2022/09/01 04:06:40;;;;;;;19.25;17.33;;;;;;;19.83;nan;94872.53;5028801;28;20230;-62
2022/09/01 04:09:07;;;;;;;22.42;17.40;;;;;;;19.37;nan;94877.56;5028422;28;20622;-64
2022/09/01 04:11:33;;;;;;;22.42;16.83;;;;;;;19.56;nan;94874.53;5030802;28;20781;-62
2022/09/01 04:14:01;;;;;;;22.88;16.63;;;;;;;19.79;nan;94875.47;5031071;28;20210;-67
2022/09/01 04:19:24;;;;;;;22.48;18.75;;;;;;;19.36;nan;94873.34;5030172;28;21158;-62
2022/09/01 04:21:52;;;;;;;20.65;18.35;;;;;;;19.52;nan;94860.22;5030353;28;21128;-64
2022/09/01 04:24:22;;;;;;;22.85;17.98;;;;;;;19.50;nan;94872.38;5031091;28;20207;-64
2022/09/01 04:26:50;;;;;;;20.55;17.25;;;;;;;19.43;nan;94874.56;5031299;28;20236;-65
2022/09/01 04:29:19;;;;;;;26.67;21.60;;;;;;;19.52;nan;94876.50;5028958;28;20249;-67
2022/09/01 04:31:47;;;;;;;28.92;23.33;;;;;;;19.49;nan;94874.13;5030525;28;20598;-64
2022/09/01 04:34:15;;;;;;;27.13;21.40;;;;;;;19.41;nan;94871.25;5031479;28;20684;-66
2022/09/01 04:36:44;;;;;;;19.00;16.75;;;;;;;19.47;nan;94870.00;5028551;28;20888;-63
2022/09/01 04:39:12;;;;;;;22.80;18.92;;;;;;;19.47;nan;94868.25;5028963;28;20569;-61
2022/09/01 04:41:41;;;;;;;22.15;19.52;;;;;;;19.39;nan;94870.53;5029497;28;20911;-65
2022/09/01 04:44:09;;;;;;;40.30;30.90;;;;;;;19.47;nan;94875.97;5029972;28;20213;-61
2022/09/01 04:46:38;;;;;;;24.52;19.65;;;;;;;19.62;nan;94874.91;5030535;28;20202;-66
2022/09/01 04:49:09;;;;;;;28.83;18.98;;;;;;;19.35;nan;94871.69;5029374;28;20226;-63
2022/09/01 04:51:40;;;;;;;21.60;18.92;;;;;;;19.12;nan;94869.91;5030156;28;20217;-64
2022/09/01 04:54:09;;;;;;;21.10;18.05;;;;;;;18.88;nan;94864.72;5030682;28;20242;-64
2022/09/01 04:56:36;;;;;;;23.92;18.83;;;;;;;18.84;nan;94861.53;5030679;28;20210;-64
2022/09/01 04:59:06;;;;;;;26.92;20.38;;;;;;;18.44;nan;94863.41;5028141;28;20202;-63
2022/09/01 05:01:41;;;;;;;23.15;20.63;;;;;;;18.48;nan;94857.13;5030110;28;20202;-65
2022/09/01 05:04:11;;;;;;;26.63;21.05;;;;;;;18.56;nan;94864.34;5029876;28;20721;-62
2022/09/01 05:06:41;;;;;;;45.47;31.20;;;;;;;18.81;nan;94864.31;5029305;28;20794;-61
2022/09/01 05:09:09;;;;;;;26.35;22.10;;;;;;;18.95;nan;94869.34;5028584;28;20464;-62
2022/09/01 05:11:37;;;;;;;30.75;21.80;;;;;;;18.62;nan;94867.31;5029384;28;20380;-63
2022/09/01 05:14:05;;;;;;;24.85;19.52;;;;;;;18.90;nan;94860.28;5030072;28;20206;-63
2022/09/01 05:16:34;;;;;;;20.52;17.20;;;;;;;19.19;nan;94863.41;5030044;28;20195;-64
2022/09/01 05:19:01;;;;;;;24.92;19.20;;;;;;;19.93;nan;94857.22;5029290;28;20202;-67
2022/09/01 05:21:29;;;;;;;21.83;16.40;;;;;;;20.89;nan;94863.69;5030573;28;20205;-65
2022/09/01 05:23:59;;;;;;;24.52;17.73;;;;;;;21.62;nan;94872.63;5029543;28;20212;-64
2022/09/01 05:26:29;;;;;;;20.27;16.98;;;;;;;22.07;nan;94868.13;5028049;28;20210;-66
2022/09/01 05:29:02;;;;;;;17.00;14.73;;;;;;;23.20;nan;94866.41;5028173;28;20237;-66
2022/09/01 05:31:36;;;;;;;19.55;17.65;;;;;;;23.93;nan;94858.19;5029720;28;20206;-67
2022/09/01 05:34:04;;;;;;;18.92;16.02;;;;;;;23.81;nan;94858.44;5029196;28;20205;-66
2022/09/01 05:36:32;;;;;;;21.92;16.45;;;;;;;23.44;nan;94853.06;5029631;28;20614;-59
2022/09/01 05:39:01;;;;;;;18.95;17.05;;;;;;;22.73;nan;94853.94;5027536;28;20194;-68
2022/09/01 05:41:28;;;;;;;20.15;17.25;;;;;;;21.88;nan;94862.78;5029624;28;20275;-67
2022/09/01 05:43:55;;;;;;;22.15;19.55;;;;;;;21.24;nan;94862.75;5028522;28;20206;-67
2022/09/01 05:46:25;;;;;;;23.90;19.88;;;;;;;20.89;nan;94865.47;5027081;28;20305;-63
2022/09/01 05:48:53;;;;;;;22.20;19.13;;;;;;;20.80;nan;94863.56;5025900;28;20360;-64
2022/09/01 05:51:24;;;;;;;24.38;19.98;;;;;;;20.51;nan;94869.22;5028012;28;20252;-66
2022/09/01 05:53:53;;;;;;;23.15;19.98;;;;;;;20.59;nan;94871.19;5027414;28;20252;-66
2022/09/01 05:56:22;;;;;;;25.70;18.65;;;;;;;20.58;nan;94870.38;5028461;28;20217;-63
2022/09/01 05:58:49;;;;;;;28.90;20.52;;;;;;;20.57;nan;94868.75;5027507;28;20225;-62
2022/09/01 06:01:21;;;;;;;22.45;19.42;;;;;;;20.70;nan;94858.31;5029098;28;22264;-71
2022/09/01 06:03:49;;;;;;;24.55;19.30;;;;;;;20.71;nan;94859.97;5029387;28;20207;-66
2022/09/01 06:06:16;;;;;;;24.05;19.88;;;;;;;20.75;nan;94866.53;5027666;28;20747;-64
2022/09/01 06:08:48;;;;;;;23.33;20.73;;;;;;;20.70;nan;94860.91;5026569;28;20686;-64
2022/09/01 06:11:16;;;;;;;29.65;21.65;;;;;;;20.32;nan;94848.25;5028513;28;20194;-68
2022/09/01 06:13:46;;;;;;;24.70;22.00;;;;;;;20.23;nan;94844.63;5027646;28;20330;-65
2022/09/01 06:16:15;;;;;;;25.85;21.55;;;;;;;20.56;nan;94848.19;5027401;28;20323;-64
2022/09/01 06:18:42;;;;;;;27.95;20.77;;;;;;;20.88;nan;94851.72;5027140;28;20318;-65
2022/09/01 06:21:13;;;;;;;23.33;20.50;;;;;;;21.32;nan;94850.84;5027550;28;20692;-66
2022/09/01 06:23:41;;;;;;;23.88;19.92;;;;;;;22.71;nan;94847.25;5028326;28;20256;-64
2022/09/01 06:26:16;;;;;;;29.80;20.58;;;;;;;24.83;nan;94847.34;5028315;28;20870;-63
2022/09/01 06:28:44;;;;;;;21.05;18.65;;;;;;;26.91;nan;94839.19;5028411;28;20802;-69
2022/09/01 06:31:11;;;;;;;22.45;19.48;;;;;;;29.04;nan;94839.22;5027047;28;20267;-64
2022/09/01 06:33:39;;;;;;;20.80;18.20;;;;;;;30.74;nan;94838.06;5028862;28;20698;-65
2022/09/01 06:36:08;;;;;;;28.10;21.67;;;;;;;32.00;nan;94829.09;5030315;28;21735;-61
2022/09/01 06:38:36;;;;;;;27.48;22.15;;;;;;;31.84;nan;94832.00;5031890;28;20198;-63
2022/09/01 06:41:04;;;;;;;48.15;28.40;;;;;;;31.70;nan;94828.41;5033489;28;20207;-63
2022/09/01 06:43:32;;;;;;;47.47;27.50;;;;;;;32.36;nan;94829.06;5036118;28;20204;-63
2022/09/01 06:46:02;;;;;;;25.23;21.50;;;;;;;32.77;nan;94829.97;5032910;28;20875;-61
2022/09/01 06:48:30;;;;;;;73.43;40.10;;;;;;;32.96;nan;94825.00;5031336;28;20311;-69
2022/09/01 06:51:00;;;;;;;49.60;29.02;;;;;;;33.33;nan;94824.63;5037406;28;20206;-64
2022/09/01 06:53:29;;;;;;;32.20;25.15;;;;;;;33.26;nan;94828.19;5032924;28;20452;-65
2022/09/01 06:55:57;;;;;;;35.58;24.48;;;;;;;32.78;nan;94828.16;5032245;28;20218;-63
2022/09/01 06:58:24;;;;;;;38.08;28.45;;;;;;;32.95;nan;94824.19;5032542;28;21013;-67
2022/09/01 07:00:51;;;;;;;30.38;24.45;;;;;;;33.56;nan;94826.94;5031475;28;20702;-63
2022/09/01 07:03:22;;;;;;;38.88;25.58;;;;;;;32.75;nan;94823.28;5032543;28;20260;-65
2022/09/01 07:05:50;;;;;;;32.00;25.48;;;;;;;33.60;nan;94827.34;5031355;28;20347;-64
2022/09/01 07:08:18;;;;;;;28.02;23.85;;;;;;;33.18;nan;94830.97;5033777;28;20688;-66
2022/09/01 07:10:49;;;;;;;40.15;26.95;;;;;;;33.06;nan;94826.28;5033108;28;20230;-64
2022/09/01 07:13:21;;;;;;;32.95;25.88;;;;;;;33.39;nan;94825.66;5033072;28;20260;-64
2022/09/01 07:15:49;;;;;;;27.33;24.23;;;;;;;33.71;nan;94819.66;5031304;28;20206;-63
2022/09/01 07:18:17;;;;;;;31.65;24.33;;;;;;;33.05;nan;94832.56;5032185;28;20198;-66
2022/09/01 07:20:47;;;;;;;41.50;26.63;;;;;;;33.52;nan;94827.50;5034522;28;21014;-61
2022/09/01 07:23:15;;;;;;;33.10;25.67;;;;;;;34.16;nan;94833.13;5030792;28;20284;-67
2022/09/01 07:25:44;;;;;;;27.88;25.17;;;;;;;34.85;nan;94827.47;5035036;28;20251;-63
2022/09/01 07:28:13;;;;;;;36.22;25.20;;;;;;;34.60;nan;94829.13;5035459;28;20214;-67
2022/09/01 07:30:43;;;;;;;36.03;25.30;;;;;;;34.42;nan;94827.88;5031827;28;20213;-64
2022/09/01 07:33:11;;;;;;;32.50;24.23;;;;;;;33.84;nan;94826.81;5030687;28;20292;-62
2022/09/01 07:35:40;;;;;;;23.95;21.38;;;;;;;34.45;nan;94831.94;5032737;28;20221;-64
2022/09/01 07:38:08;;;;;;;28.27;22.20;;;;;;;34.36;nan;94823.44;5030765;28;20621;-66
2022/09/01 07:40:38;;;;;;;25.40;22.65;;;;;;;33.12;nan;94820.25;5032058;28;20207;-63
2022/09/01 07:43:08;;;;;;;28.13;22.17;;;;;;;33.45;nan;94812.50;5030827;28;20212;-61
2022/09/01 07:45:37;;;;;;;24.65;21.38;;;;;;;33.32;nan;94819.53;5030870;28;20297;-66
2022/09/01 07:48:07;;;;;;;26.58;22.42;;;;;;;33.07;nan;94825.28;5029442;28;20207;-62
2022/09/01 07:50:35;;;;;;;34.42;22.38;;;;;;;31.12;nan;94822.28;5030069;28;20280;-64
2022/09/01 07:53:03;;;;;;;24.67;21.33;;;;;;;30.62;nan;94825.59;5030081;28;20213;-62
2022/09/01 07:55:31;;;;;;;26.70;22.98;;;;;;;31.16;nan;94830.59;5029824;28;20206;-66
2022/09/01 07:57:58;;;;;;;26.67;21.80;;;;;;;31.33;nan;94826.75;5030659;28;20696;-65
2022/09/01 08:00:27;;;;;;;23.70;21.40;;;;;;;30.79;nan;94825.25;5031184;28;22632;-65
2022/09/01 08:02:54;;;;;;;24.15;21.10;;;;;;;30.66;nan;94829.50;5029902;28;20213;-65
2022/09/01 08:05:25;;;;;;;23.17;20.42;;;;;;;30.49;nan;94825.34;5030852;28;20199;-62
2022/09/01 08:07:51;;;;;;;24.02;21.60;;;;;;;29.53;nan;94826.72;5028471;28;21072;-65
2022/09/01 08:10:18;;;;;;;25.33;20.75;;;;;;;29.72;nan;94825.47;5030562;28;20238;-66
2022/09/01 08:12:46;;;;;;;26.05;20.42;;;;;;;29.82;nan;94815.59;5031139;28;20260;-67
2022/09/01 08:15:13;;;;;;;25.15;19.80;;;;;;;29.53;nan;94821.50;5028096;28;20749;-66
2022/09/01 08:17:40;;;;;;;21.33;19.10;;;;;;;29.22;nan;94818.03;5027353;28;20229;-63
2022/09/01 08:20:08;;;;;;;25.65;19.08;;;;;;;29.28;nan;94815.56;5030029;28;20198;-66
2022/09/01 08:22:36;;;;;;;25.13;20.45;;;;;;;29.16;nan;94818.72;5030289;28;20623;-61
2022/09/01 08:25:05;;;;;;;28.67;20.52;;;;;;;29.26;nan;94814.09;5028541;28;20214;-65
2022/09/01 08:27:35;;;;;;;23.35;19.17;;;;;;;29.33;nan;94813.25;5027398;28;20279;-62
2022/09/01 08:30:03;;;;;;;22.60;20.33;;;;;;;29.06;nan;94808.47;5028561;28;20598;-66
2022/09/01 08:32:31;;;;;;;23.35;20.27;;;;;;;28.95;nan;94812.28;5030295;28;20297;-68
2022/09/01 08:34:57;;;;;;;24.35;19.92;;;;;;;28.94;nan;94802.81;5027812;28;20210;-63
2022/09/01 08:37:25;;;;;;;22.48;19.42;;;;;;;28.88;nan;94803.47;5026927;28;20234;-62
2022/09/01 08:39:52;;;;;;;21.40;17.83;;;;;;;28.98;nan;94804.06;5029659;28;20206;-67
2022/09/01 08:42:41;;;;;;;23.50;19.25;;;;;;;28.89;nan;94806.91;5029015;28;20267;-68
2022/09/01 08:45:19;;;;;;;17.92;16.25;;;;;;;28.88;nan;94806.09;5030328;28;20202;-68
2022/09/01 08:47:46;;;;;;;21.08;17.17;;;;;;;28.53;nan;94798.63;5027699;28;20295;-67
2022/09/01 08:50:13;;;;;;;18.00;15.80;;;;;;;28.19;nan;94796.25;5030509;28;20233;-66
2022/09/01 08:52:45;;;;;;;21.83;15.23;;;;;;;28.43;nan;94789.19;5029996;28;20688;-63
2022/09/01 08:55:19;;;;;;;17.95;14.98;;;;;;;28.39;nan;94782.66;5029085;28;20242;-62
2022/09/01 08:57:50;;;;;;;23.17;16.00;;;;;;;27.97;nan;94785.44;5029018;28;20213;-68
2022/09/01 09:00:22;;;;;;;18.13;16.23;;;;;;;28.21;nan;94776.03;5028965;28;20234;-65
2022/09/01 09:03:01;;;;;;;17.48;15.35;;;;;;;27.87;nan;94770.94;5030664;28;20202;-67
2022/09/01 09:05:38;;;;;;;19.23;13.68;;;;;;;28.17;nan;94772.06;5029376;28;20286;-63
2022/09/01 09:08:29;;;;;;;20.20;15.70;;;;;;;28.28;nan;94769.94;5026188;28;20206;-63
2022/09/01 09:10:59;;;;;;;18.02;15.15;;;;;;;28.26;nan;94768.47;5029916;28;20241;-63
2022/09/01 09:13:39;;;;;;;17.55;13.23;;;;;;;28.53;nan;94770.69;5029664;28;20604;-66
2022/09/01 09:16:13;;;;;;;19.92;13.85;;;;;;;28.08;nan;94766.84;5030115;28;20313;-67
2022/09/01 09:18:44;;;;;;;25.33;14.55;;;;;;;27.96;nan;94768.19;5029076;28;20805;-64
2022/09/01 09:21:17;;;;;;;15.43;11.52;;;;;;;28.06;nan;94763.56;5029705;28;20210;-65
2022/09/01 09:23:48;;;;;;;18.70;12.85;;;;;;;27.93;nan;94765.06;5027951;28;20267;-67
2022/09/01 09:26:19;;;;;;;13.63;12.20;;;;;;;27.70;nan;94763.13;5027447;28;20251;-62
2022/09/01 09:28:48;;;;;;;14.93;11.60;;;;;;;27.88;nan;94759.53;5035279;28;20635;-64
2022/09/01 09:31:32;;;;;;;20.45;11.93;;;;;;;27.82;nan;94762.78;5032080;28;20226;-64
2022/09/01 09:33:59;;;;;;;13.07;9.88;;;;;;;28.07;nan;94756.56;5029426;28;20214;-67
2022/09/01 09:36:32;;;;;;;20.85;11.00;;;;;;;28.28;nan;94741.19;5027478;28;20272;-62
2022/09/01 09:39:11;;;;;;;14.50;11.02;;;;;;;28.15;nan;94740.88;5035245;28;20227;-68
2022/09/01 09:41:40;;;;;;;12.55;10.70;;;;;;;28.20;nan;94748.22;5032862;28;20225;-62
2022/09/01 09:44:19;;;;;;;15.63;11.18;;;;;;;28.19;nan;94742.19;5031634;28;20229;-66
2022/09/01 09:46:47;;;;;;;19.67;12.32;;;;;;;28.04;nan;94743.81;5027684;28;20217;-68
2022/09/01 09:49:23;;;;;;;18.73;10.02;;;;;;;27.51;nan;94737.28;5029200;28;20206;-65
2022/09/01 09:51:52;;;;;;;41.00;11.68;;;;;;;27.48;nan;94742.81;5030260;28;20202;-71
2022/09/01 09:54:24;;;;;;;11.48;8.75;;;;;;;27.40;nan;94740.22;5027538;28;20234;-67
2022/09/01 09:57:06;;;;;;;13.05;8.40;;;;;;;27.36;nan;94738.91;5026191;28;20210;-73
2022/09/01 09:59:38;;;;;;;12.77;8.88;;;;;;;27.46;nan;94736.97;5025440;28;21816;-71
2022/09/01 10:02:22;;;;;;;15.05;9.90;;;;;;;27.68;nan;94733.75;5025499;28;20681;-69
2022/09/01 10:04:49;;;;;;;10.60;9.55;;;;;;;27.99;nan;94733.03;5027323;28;20201;-71
2022/09/01 10:07:31;;;;;;;13.63;10.68;;;;;;;27.99;nan;94720.81;5024900;28;20245;-68
2022/09/01 10:10:00;;;;;;;20.30;11.40;;;;;;;27.76;nan;94722.47;5027967;28;20268;-69
2022/09/01 10:12:29;;;;;;;16.13;10.13;;;;;;;27.36;nan;94723.25;5029613;28;20670;-72
2022/09/01 10:15:01;;;;;;;15.38;10.13;;;;;;;27.49;nan;94718.34;5029402;28;20987;-69
2022/09/01 10:17:33;;;;;;;12.45;9.85;;;;;;;27.93;nan;94726.72;5025505;28;20256;-69
2022/09/01 10:20:04;;;;;;;17.10;12.05;;;;;;;28.15;nan;94725.19;5029327;28;20209;-70
2022/09/01 10:22:32;;;;;;;10.82;9.57;;;;;;;28.24;nan;94718.19;5028221;28;20727;-69
2022/09/01 10:25:00;;;;;;;12.80;11.15;;;;;;;28.54;nan;94708.78;5027809;28;20284;-69
2022/09/01 10:27:30;;;;;;;14.77;9.88;;;;;;;28.54;nan;94714.00;5028073;28;20213;-69
2022/09/01 10:30:04;;;;;;;15.45;9.32;;;;;;;28.38;nan;94705.25;5029346;28;20226;-68
2022/09/01 10:32:38;;;;;;;11.25;9.63;;;;;;;28.09;nan;94703.16;5029862;28;20377;-70
2022/09/01 10:35:09;;;;;;;16.20;9.18;;;;;;;27.66;nan;94709.59;5028958;28;20635;-68
2022/09/01 10:37:39;;;;;;;13.63;9.40;;;;;;;27.60;nan;94702.41;5027498;28;20588;-69
2022/09/01 10:40:16;;;;;;;15.27;9.68;;;;;;;27.77;nan;94711.84;5028469;28;20570;-69
2022/09/01 10:42:45;;;;;;;10.25;9.25;;;;;;;27.93;nan;94700.59;5029903;28;20214;-69
2022/09/01 10:45:30;;;;;;;10.60;9.15;;;;;;;27.84;nan;94705.97;5033074;28;20219;-68
2022/09/01 10:48:32;;;;;;;12.95;9.38;;;;;;;28.11;nan;94698.59;5031004;28;20201;-70
2022/09/01 10:51:36;;;;;;;14.23;9.48;;;;;;;28.22;nan;94705.28;5032504;28;20237;-69
2022/09/01 10:54:04;;;;;;;13.82;10.02;;;;;;;28.60;nan;94690.63;5030866;28;20244;-69
2022/09/01 10:56:39;;;;;;;10.60;9.27;;;;;;;28.69;nan;94691.41;5031262;28;20221;-68
2022/09/01 10:59:08;;;;;;;15.07;9.48;;;;;;;28.89;nan;94683.97;5030953;28;20213;-68
2022/09/01 11:02:09;;;;;;;14.93;9.52;;;;;;;28.83;nan;94688.09;5031424;28;20645;-68
2022/09/01 11:05:13;;;;;;;11.65;10.45;;;;;;;28.50;nan;94682.16;5009228;28;20207;-69
2022/09/01 11:07:39;;;;;;;10.88;9.95;;;;;;;28.44;nan;94682.84;5029162;28;20287;-69
2022/09/01 11:10:25;;;;;;;17.45;8.85;;;;;;;28.35;nan;94674.22;5032523;28;20290;-68
2022/09/01 11:13:13;;;;;;;9.40;8.60;;;;;;;28.25;nan;94676.19;5032794;28;20210;-68
2022/09/01 11:15:42;;;;;;;13.07;8.88;;;;;;;28.48;nan;94678.06;5031524;28;20199;-69
2022/09/01 11:18:14;;;;;;;12.88;9.77;;;;;;;28.61;nan;94670.50;5030687;28;20206;-69
2022/09/01 11:20:44;;;;;;;8.63;7.90;;;;;;;28.73;nan;94676.97;5030014;28;20222;-68
2022/09/01 11:23:13;;;;;;;11.02;9.18;;;;;;;28.75;nan;94665.34;5029664;28;20202;-69
2022/09/01 11:25:42;;;;;;;24.02;11.27;;;;;;;29.04;nan;94667.34;5030970;28;20206;-68
2022/09/01 11:28:37;;;;;;;11.25;8.20;;;;;;;28.91;nan;94664.50;5030010;28;20680;-71
2022/09/01 11:31:25;;;;;;;12.65;8.68;;;;;;;28.25;nan;94657.91;5030679;28;20295;-67
2022/09/01 11:34:01;;;;;;;11.30;10.02;;;;;;;28.20;nan;94660.22;5030743;28;20680;-68
2022/09/01 11:36:34;;;;;;;10.23;9.10;;;;;;;27.94;nan;94650.00;5029987;28;20219;-68
2022/09/01 11:39:26;;;;;;;13.95;9.65;;;;;;;27.91;nan;94649.50;5031127;28;20267;-67
2022/09/01 11:41:56;;;;;;;14.57;10.05;;;;;;;28.24;nan;94639.78;5029280;28;22166;-68
2022/09/01 11:44:26;;;;;;;11.60;9.85;;;;;;;28.02;nan;94636.88;5027446;28;20264;-68
2022/09/01 11:46:58;;;;;;;11.68;10.02;;;;;;;28.22;nan;94626.88;5030081;28;20210;-68
2022/09/01 11:49:29;;;;;;;11.57;10.40;;;;;;;28.58;nan;94618.56;5031160;28;20257;-66
2022/09/01 11:51:59;;;;;;;16.23;11.43;;;;;;;28.74;nan;94621.88;5030346;28;20226;-67
2022/09/01 11:54:27;;;;;;;12.35;10.00;;;;;;;28.70;nan;94625.03;5028386;28;20230;-69
2022/09/01 11:56:53;;;;;;;12.00;10.45;;;;;;;28.43;nan;94623.72;5027522;28;20311;-68